Time;durP1;ratioP1;P1;durP2;ratioP2;P2;SDS_P1;SDS_P2;PMS_P1;PMS_P2;Temp;Humidity;BMP_temperature;BMP_pressure;BME280_temperature;BME280_humidity;BME280_pressure;Samples;Min_cycle;Max_cycle;Signal;HPM_P1;HPM_P2
2022/11/30 00:00:19;;;;;;;8.75;4.65;;;2.70;99.90;;;;;;5092548;28;20040;-81
2022/11/30 00:02:45;;;;;;;9.85;4.50;;;2.70;99.90;;;;;;5092729;28;20036;-81
2022/11/30 00:05:11;;;;;;;9.02;4.95;;;2.70;99.90;;;;;;5051851;28;20154;-81
2022/11/30 00:07:38;;;;;;;9.55;4.30;;;2.90;99.90;;;;;;5088700;28;20388;-81
2022/11/30 00:10:05;;;;;;;7.55;4.65;;;2.70;99.90;;;;;;5055806;28;20148;-81
2022/11/30 00:12:31;;;;;;;8.60;4.97;;;2.60;99.90;;;;;;5076673;28;20104;-81
2022/11/30 00:14:57;;;;;;;16.55;5.38;;;2.60;99.90;;;;;;5052420;28;20107;-84
2022/11/30 00:17:23;;;;;;;10.85;4.88;;;3.50;99.90;;;;;;5076318;28;20043;-84
2022/11/30 00:19:49;;;;;;;9.98;4.95;;;4.00;99.90;;;;;;5075636;28;20055;-84
2022/11/30 00:22:14;;;;;;;9.98;5.38;;;2.60;99.90;;;;;;5075413;28;20051;-84
2022/11/30 00:24:40;;;;;;;9.38;4.20;;;4.00;99.90;;;;;;5059726;28;20043;-82
2022/11/30 00:27:06;;;;;;;9.35;5.18;;;3.90;99.90;;;;;;5092482;28;20040;-82
2022/11/30 00:29:31;;;;;;;8.90;4.88;;;2.80;99.90;;;;;;5093141;28;20126;-82
2022/11/30 00:31:57;;;;;;;8.02;4.43;;;2.80;99.90;;;;;;5092207;28;20125;-82
2022/11/30 00:34:23;;;;;;;8.80;4.70;;;3.50;99.90;;;;;;5076750;28;20035;-82
2022/11/30 00:36:48;;;;;;;7.70;4.47;;;3.00;99.90;;;;;;5093933;28;20096;-82
2022/11/30 00:39:14;;;;;;;8.75;5.03;;;3.10;99.90;;;;;;5076993;28;20551;-82
2022/11/30 00:41:39;;;;;;;8.73;5.28;;;3.10;99.90;;;;;;5075088;28;20059;-81
2022/11/30 00:44:05;;;;;;;11.27;7.63;;;0.90;99.90;;;;;;5094311;28;20036;-81
2022/11/30 00:46:31;;;;;;;8.48;4.50;;;3.30;99.90;;;;;;5079611;28;20410;-84
2022/11/30 00:48:56;;;;;;;10.40;5.03;;;4.70;99.90;;;;;;5096307;28;20085;-84
2022/11/30 00:51:22;;;;;;;11.00;5.57;;;4.60;99.90;;;;;;5087279;28;20753;-84
2022/11/30 00:53:48;;;;;;;10.45;5.60;;;5.30;99.90;;;;;;5063280;28;20050;-84
2022/11/30 00:56:14;;;;;;;8.73;4.88;;;3.70;99.90;;;;;;5063054;28;20056;-84
2022/11/30 00:58:40;;;;;;;10.57;4.75;;;3.70;99.90;;;;;;5080193;28;20070;-84
2022/11/30 01:01:06;;;;;;;8.93;5.13;;;3.70;99.90;;;;;;5080479;28;20082;-84
2022/11/30 01:03:33;;;;;;;10.40;5.57;;;4.10;99.90;;;;;;5095890;28;20130;-82
2022/11/30 01:06:08;;;;;;;8.40;4.78;;;3.80;99.90;;;;;;5105285;28;20039;-82
2022/11/30 01:08:35;;;;;;;12.60;6.10;;;3.90;99.90;;;;;;5095379;28;20040;-82
2022/11/30 01:11:25;;;;;;;10.75;5.20;;;4.40;99.90;;;;;;5096052;28;20308;-81
2022/11/30 01:13:52;;;;;;;10.80;5.68;;;4.70;99.90;;;;;;5083472;28;20087;-81
2022/11/30 01:16:23;;;;;;;9.88;4.80;;;4.00;99.90;;;;;;5096024;28;20070;-81
2022/11/30 01:18:52;;;;;;;11.63;4.88;;;4.10;99.90;;;;;;5079131;28;20063;-84
2022/11/30 01:21:23;;;;;;;9.18;5.00;;;4.10;99.90;;;;;;5080493;28;20043;-82
2022/11/30 01:23:50;;;;;;;10.50;5.60;;;4.50;99.90;;;;;;5096331;28;20409;-82
2022/11/30 01:26:16;;;;;;;11.07;5.80;;;4.20;99.90;;;;;;5096306;28;20513;-82
2022/11/30 01:28:43;;;;;;;11.05;5.60;;;4.20;99.90;;;;;;5095847;28;20032;-82
2022/11/30 01:31:13;;;;;;;10.30;6.53;;;4.30;99.90;;;;;;5078765;28;20043;-82
2022/11/30 01:33:40;;;;;;;10.57;5.97;;;4.60;99.90;;;;;;5077281;28;20125;-82
2022/11/30 01:36:10;;;;;;;11.65;5.47;;;4.40;99.90;;;;;;5078551;28;20115;-82
2022/11/30 01:38:44;;;;;;;11.40;5.97;;;4.40;99.90;;;;;;5095882;28;20039;-82
2022/11/30 01:41:12;;;;;;;11.65;5.85;;;4.50;99.90;;;;;;5077229;28;20140;-82
2022/11/30 01:43:50;;;;;;;12.25;5.28;;;4.50;99.90;;;;;;5094027;28;20036;-82
2022/11/30 01:46:20;;;;;;;10.40;5.25;;;4.50;99.90;;;;;;5095916;28;20036;-82
2022/11/30 01:48:54;;;;;;;9.60;5.05;;;4.60;99.90;;;;;;5095461;28;20040;-82
2022/11/30 01:51:19;;;;;;;11.32;5.93;;;4.60;99.90;;;;;;5085888;28;20039;-80
2022/11/30 01:53:45;;;;;;;10.32;5.00;;;4.90;99.90;;;;;;5111752;28;20118;-84
2022/11/30 01:56:11;;;;;;;11.77;5.72;;;5.30;99.90;;;;;;5077333;28;20044;-84
2022/11/30 01:58:37;;;;;;;10.30;5.35;;;4.60;99.90;;;;;;5094329;28;20040;-84
2022/11/30 02:01:03;;;;;;;13.02;5.82;;;4.60;99.90;;;;;;5077994;28;20042;-84
2022/11/30 02:03:33;;;;;;;9.88;5.38;;;4.60;99.90;;;;;;5096038;28;20434;-84
2022/11/30 02:05:59;;;;;;;12.00;5.28;;;4.70;99.90;;;;;;5078931;28;20032;-84
2022/11/30 02:08:26;;;;;;;12.52;5.68;;;4.60;99.90;;;;;;5095677;28;20047;-84
2022/11/30 02:10:57;;;;;;;13.48;6.88;;;4.70;99.90;;;;;;5078618;28;20100;-82
2022/11/30 02:13:59;;;;;;;12.60;6.35;;;4.70;99.90;;;;;;5095250;28;20112;-82
2022/11/30 02:16:36;;;;;;;11.55;6.68;;;4.80;99.90;;;;;;5072134;28;20051;-82
2022/11/30 02:19:39;;;;;;;10.68;5.50;;;6.40;99.90;;;;;;5077957;28;20058;-82
2022/11/30 02:22:32;;;;;;;12.18;6.05;;;4.70;99.90;;;;;;5073107;28;20040;-81
2022/11/30 02:25:01;;;;;;;11.35;5.85;;;4.60;99.90;;;;;;5072854;28;20467;-81
2022/11/30 02:27:56;;;;;;;9.80;5.25;;;5.70;99.90;;;;;;5095739;28;20051;-81
2022/11/30 02:30:22;;;;;;;11.27;5.32;;;4.50;99.90;;;;;;5074192;28;20043;-81
2022/11/30 02:33:12;;;;;;;10.57;5.63;;;4.40;99.90;;;;;;5112625;28;20118;-81
2022/11/30 02:35:42;;;;;;;10.32;5.35;;;2.80;99.90;;;;;;5094174;28;20032;-82
2022/11/30 02:38:09;;;;;;;12.93;6.18;;;2.60;99.90;;;;;;5077675;28;20126;-82
2022/11/30 02:40:35;;;;;;;10.70;5.40;;;4.20;99.90;;;;;;5078360;28;20043;-82
2022/11/30 02:43:03;;;;;;;10.23;5.03;;;4.10;99.90;;;;;;5077885;28;20035;-82
2022/11/30 02:45:37;;;;;;;10.55;5.38;;;3.90;99.90;;;;;;5095028;28;20047;-82
2022/11/30 02:48:09;;;;;;;8.60;4.85;;;4.70;99.90;;;;;;5094787;28;20120;-82
2022/11/30 02:50:49;;;;;;;9.07;5.22;;;3.80;99.90;;;;;;5079724;28;20483;-82
2022/11/30 02:53:15;;;;;;;9.82;5.68;;;3.70;99.90;;;;;;5101497;28;20453;-82
2022/11/30 02:55:40;;;;;;;10.45;5.32;;;5.30;99.90;;;;;;5078136;28;20043;-82
2022/11/30 02:58:06;;;;;;;7.55;4.30;;;5.40;99.90;;;;;;5078283;28;20043;-82
2022/11/30 03:00:32;;;;;;;14.68;4.93;;;3.40;99.90;;;;;;5058693;28;20044;-80
2022/11/30 03:02:58;;;;;;;6.85;3.65;;;4.40;99.90;;;;;;5058793;28;20400;-80
2022/11/30 03:05:24;;;;;;;41.38;5.40;;;;;;;;;;5078581;28;20390;-80
2022/11/30 03:07:49;;;;;;;11.15;4.75;;;3.30;99.90;;;;;;5078403;28;20035;-80
2022/11/30 03:10:15;;;;;;;9.65;4.57;;;4.30;99.90;;;;;;5078674;28;20044;-80
2022/11/30 03:12:41;;;;;;;7.53;4.53;;;3.10;99.90;;;;;;5094655;28;20126;-80
2022/11/30 03:15:07;;;;;;;9.93;4.53;;;3.90;99.90;;;;;;5061794;28;20259;-80
2022/11/30 03:17:33;;;;;;;8.07;5.30;;;2.90;99.90;;;;;;5095494;28;20035;-80
2022/11/30 03:19:59;;;;;;;10.27;4.80;;;4.30;99.90;;;;;;5061195;28;20120;-80
2022/11/30 03:22:24;;;;;;;7.68;4.35;;;2.80;99.90;;;;;;5094944;28;20043;-80
2022/11/30 03:24:50;;;;;;;8.63;4.65;;;2.70;99.90;;;;;;5078129;28;20039;-80
2022/11/30 03:27:16;;;;;;;10.60;4.20;;;4.20;99.90;;;;;;5061811;28;20038;-80
2022/11/30 03:29:41;;;;;;;10.55;4.18;;;2.60;99.90;;;;;;5078521;28;20386;-80
2022/11/30 03:32:07;;;;;;;33.50;5.15;;;4.20;99.90;;;;;;5095066;28;20118;-80
2022/11/30 03:34:33;;;;;;;6.78;3.85;;;2.50;99.90;;;;;;5053465;28;20042;-81
2022/11/30 03:36:59;;;;;;;6.93;3.85;;;2.60;99.90;;;;;;5077704;28;20035;-81
2022/11/30 03:39:24;;;;;;;6.90;3.85;;;2.60;99.90;;;;;;5094696;28;20130;-81
2022/11/30 03:41:50;;;;;;;5.88;3.92;;;2.10;99.90;;;;;;5094507;28;20040;-81
2022/11/30 03:44:16;;;;;;;7.85;4.47;;;3.80;99.90;;;;;;5093944;28;20100;-84
2022/11/30 03:46:42;;;;;;;7.85;4.10;;;2.50;99.90;;;;;;5085104;28;20560;-84
2022/11/30 03:49:08;;;;;;;6.13;3.70;;;2.80;99.90;;;;;;5080830;28;20043;-84
2022/11/30 03:51:34;;;;;;;7.55;3.35;;;4.10;99.90;;;;;;5087219;28;20046;-80
2022/11/30 03:54:00;;;;;;;8.20;3.92;;;3.90;99.90;;;;;;5090322;28;20294;-80
2022/11/30 03:56:25;;;;;;;6.97;4.43;;;3.90;99.90;;;;;;5077898;28;20118;-80
2022/11/30 03:58:51;;;;;;;7.68;4.00;;;2.50;99.90;;;;;;5077818;28;20551;-80
2022/11/30 04:01:22;;;;;;;7.78;4.15;;;4.10;99.90;;;;;;5094340;28;20118;-80
2022/11/30 04:03:51;;;;;;;6.78;3.55;;;3.40;99.90;;;;;;5094515;28;20364;-80
2022/11/30 04:06:19;;;;;;;7.55;4.43;;;2.40;99.90;;;;;;5094879;28;20495;-80
2022/11/30 04:08:45;;;;;;;6.97;3.92;;;2.90;99.90;;;;;;5077817;28;20479;-80
2022/11/30 04:11:12;;;;;;;6.55;3.83;;;2.30;99.90;;;;;;5094871;28;20074;-80
2022/11/30 04:13:38;;;;;;;7.50;4.00;;;3.60;99.90;;;;;;5078310;28;20047;-80
2022/11/30 04:16:05;;;;;;;12.35;4.88;;;2.30;99.90;;;;;;5060511;28;20027;-80
2022/11/30 04:18:32;;;;;;;7.70;3.50;;;2.20;99.90;;;;;;5060055;28;20050;-80
2022/11/30 04:20:59;;;;;;;6.68;3.72;;;3.60;99.90;;;;;;5058185;28;20048;-80
2022/11/30 04:23:28;;;;;;;6.32;3.40;;;3.50;99.90;;;;;;5090387;28;20530;-81
2022/11/30 04:25:55;;;;;;;6.25;4.03;;;3.70;99.90;;;;;;5077161;28;20051;-82
2022/11/30 04:28:21;;;;;;;6.55;3.58;;;2.80;99.90;;;;;;5057562;28;20075;-82
2022/11/30 04:30:46;;;;;;;7.35;4.43;;;2.30;99.90;;;;;;5057804;28;20078;-82
2022/11/30 04:33:14;;;;;;;6.57;3.50;;;3.90;99.90;;;;;;5079913;28;20050;-82
2022/11/30 04:35:42;;;;;;;6.93;3.97;;;2.30;99.90;;;;;;5077365;28;20560;-82
2022/11/30 04:38:08;;;;;;;6.63;3.53;;;3.90;99.90;;;;;;5057735;28;20050;-82
2022/11/30 04:40:37;;;;;;;22.40;4.35;;;3.80;99.90;;;;;;5058014;28;20127;-84
2022/11/30 04:43:03;;;;;;;6.43;4.18;;;3.80;99.90;;;;;;5057648;28;20048;-84
2022/11/30 04:45:28;;;;;;;6.85;3.70;;;2.20;99.90;;;;;;5059012;28;20527;-84
2022/11/30 04:47:54;;;;;;;5.82;3.33;;;4.00;99.90;;;;;;5075979;28;20043;-84
2022/11/30 04:50:20;;;;;;;6.82;3.70;;;3.70;99.90;;;;;;5061878;28;20036;-84
2022/11/30 04:52:46;;;;;;;7.53;4.30;;;2.00;99.90;;;;;;5061485;28;20055;-84
2022/11/30 04:55:11;;;;;;;6.97;3.63;;;3.40;99.90;;;;;;5040826;28;20040;-84
2022/11/30 04:57:37;;;;;;;6.97;3.92;;;2.10;99.90;;;;;;5057770;28;20035;-82
2022/11/30 05:00:05;;;;;;;6.10;3.88;;;3.40;99.90;;;;;;5060640;28;20380;-82
2022/11/30 05:02:30;;;;;;;6.65;3.97;;;2.30;99.90;;;;;;5094090;28;20048;-82
2022/11/30 05:04:56;;;;;;;7.75;4.00;;;2.40;99.90;;;;;;5060552;28;20046;-82
2022/11/30 05:07:22;;;;;;;6.72;3.95;;;4.30;99.90;;;;;;5092888;28;20048;-81
2022/11/30 05:09:47;;;;;;;7.03;3.83;;;2.50;99.90;;;;;;5093634;28;20036;-81
2022/11/30 05:12:13;;;;;;;8.68;4.30;;;2.60;99.90;;;;;;5094020;28;20048;-81
2022/11/30 05:14:39;;;;;;;8.88;4.38;;;2.70;99.90;;;;;;5077042;28;20089;-81
2022/11/30 05:17:04;;;;;;;7.88;4.05;;;2.80;99.90;;;;;;5093227;28;20048;-81
2022/11/30 05:19:30;;;;;;;8.20;4.32;;;2.90;99.90;;;;;;5093367;28;20051;-81
2022/11/30 05:21:56;;;;;;;7.60;4.25;;;2.90;99.90;;;;;;5073861;28;20139;-81
2022/11/30 05:24:21;;;;;;;8.32;4.40;;;4.50;99.90;;;;;;5076499;28;20048;-81
2022/11/30 05:26:47;;;;;;;8.52;4.85;;;3.00;99.90;;;;;;5076654;28;20040;-81
2022/11/30 05:29:13;;;;;;;10.38;5.22;;;3.70;99.90;;;;;;5074704;28;20035;-81
2022/11/30 05:31:39;;;;;;;8.32;3.97;;;3.70;99.90;;;;;;5075597;28;20054;-84
2022/11/30 05:34:05;;;;;;;7.97;4.28;;;3.10;99.90;;;;;;5101802;28;20040;-84
2022/11/30 05:36:31;;;;;;;7.82;4.15;;;3.40;99.90;;;;;;5093345;28;20044;-84
2022/11/30 05:38:56;;;;;;;10.68;4.70;;;2.50;99.90;;;;;;5050071;28;20040;-84
2022/11/30 05:41:22;;;;;;;8.55;4.78;;;4.70;99.90;;;;;;5093942;28;20051;-84
2022/11/30 05:43:48;;;;;;;9.05;4.82;;;3.30;99.90;;;;;;5092718;28;20032;-84
2022/11/30 05:46:13;;;;;;;9.75;4.95;;;3.20;99.90;;;;;;5092512;28;20036;-82
2022/11/30 05:48:39;;;;;;;7.72;4.07;;;3.20;99.90;;;;;;5057290;28;20391;-82
2022/11/30 05:51:14;;;;;;;7.47;3.92;;;3.10;99.90;;;;;;5092664;28;20483;-81
2022/11/30 05:53:40;;;;;;;8.35;4.32;;;3.10;99.90;;;;;;5093279;28;20044;-81
2022/11/30 05:56:10;;;;;;;8.18;4.60;;;3.10;99.90;;;;;;5059729;28;20484;-82
2022/11/30 05:58:35;;;;;;;7.30;4.30;;;3.40;99.90;;;;;;5092793;28;20054;-82
2022/11/30 06:01:02;;;;;;;6.55;3.72;;;3.20;99.90;;;;;;5075839;28;20040;-82
2022/11/30 06:03:29;;;;;;;6.45;3.80;;;3.20;99.90;;;;;;5092447;28;20040;-82
2022/11/30 06:05:55;;;;;;;7.85;4.78;;;4.90;99.90;;;;;;5093196;28;20129;-80
2022/11/30 06:08:22;;;;;;;7.13;4.00;;;3.30;99.90;;;;;;5059408;28;20063;-80
2022/11/30 06:10:48;;;;;;;7.20;4.00;;;3.30;99.90;;;;;;5075304;28;20089;-80
2022/11/30 06:13:13;;;;;;;9.65;4.68;;;4.20;99.90;;;;;;5092737;28;20479;-80
2022/11/30 06:15:40;;;;;;;7.35;4.18;;;3.50;99.90;;;;;;5093228;28;20130;-80
2022/11/30 06:18:07;;;;;;;6.53;4.22;;;4.20;99.90;;;;;;5075979;28;20505;-80
2022/11/30 06:20:33;;;;;;;6.55;3.95;;;3.60;99.90;;;;;;5075500;28;20260;-84
2022/11/30 06:22:59;;;;;;;6.97;3.70;;;3.60;99.90;;;;;;5092202;28;20083;-84
2022/11/30 06:25:26;;;;;;;6.25;3.85;;;4.50;99.90;;;;;;5092514;28;20082;-84
2022/11/30 06:27:52;;;;;;;6.32;3.97;;;1.70;99.90;;;;;;5084000;28;20044;-84
2022/11/30 06:30:18;;;;;;;10.23;5.53;;;;;;;;;;5104561;28;20114;-84
2022/11/30 06:32:45;;;;;;;10.48;5.35;;;3.80;99.90;;;;;;5067518;28;20047;-84
2022/11/30 06:35:10;;;;;;;9.10;5.22;;;4.20;99.90;;;;;;5106356;28;20036;-84
2022/11/30 06:37:36;;;;;;;8.40;4.22;;;4.00;99.90;;;;;;5054268;28;20073;-82
2022/11/30 06:40:03;;;;;;;7.22;4.22;;;3.90;99.90;;;;;;5080972;28;20039;-82
2022/11/30 06:42:31;;;;;;;9.27;4.45;;;4.00;99.90;;;;;;5090739;28;20052;-82
2022/11/30 06:44:57;;;;;;;9.02;4.40;;;4.50;99.90;;;;;;5092021;28;20474;-82
2022/11/30 06:47:22;;;;;;;7.63;4.47;;;4.90;99.90;;;;;;5074708;28;20513;-82
2022/11/30 06:49:48;;;;;;;7.00;4.03;;;4.30;99.90;;;;;;5055002;28;20124;-82
2022/11/30 06:52:14;;;;;;;7.82;4.60;;;5.50;99.90;;;;;;5090375;28;20048;-82
2022/11/30 06:54:40;;;;;;;8.30;4.65;;;5.50;99.90;;;;;;5090821;28;20040;-82
2022/11/30 06:57:06;;;;;;;9.13;4.95;;;4.10;99.90;;;;;;5086301;28;20173;-82
2022/11/30 06:59:31;;;;;;;8.80;4.50;;;5.50;99.90;;;;;;5066249;28;20496;-82
2022/11/30 07:01:57;;;;;;;8.55;4.72;;;4.20;99.90;;;;;;5057630;28;20551;-82
2022/11/30 07:04:25;;;;;;;9.60;4.97;;;4.20;99.90;;;;;;5093454;28;20042;-82
2022/11/30 07:06:51;;;;;;;7.75;4.28;;;4.30;99.90;;;;;;5060564;28;20036;-82
2022/11/30 07:09:16;;;;;;;8.05;4.50;;;5.80;99.90;;;;;;5094195;28;20047;-82
2022/11/30 07:11:42;;;;;;;10.40;4.78;;;4.30;99.90;;;;;;5075805;28;20136;-84
2022/11/30 07:14:08;;;;;;;9.95;4.82;;;5.50;99.90;;;;;;5092619;28;20044;-84
2022/11/30 07:16:33;;;;;;;9.32;5.03;;;5.00;99.90;;;;;;5073679;28;20035;-84
2022/11/30 07:18:59;;;;;;;15.80;6.13;;;4.40;99.90;;;;;;5057513;28;20479;-84
2022/11/30 07:21:25;;;;;;;11.05;5.38;;;5.10;99.90;;;;;;5075630;28;20059;-84
2022/11/30 07:26:35;;;;;;;14.70;6.15;;;7.40;99.90;;;;;;5092132;28;20479;-82
2022/11/30 07:29:01;;;;;;;11.57;5.70;;;3.00;99.90;;;;;;5075682;28;20039;-82
2022/11/30 07:31:33;;;;;;;11.07;5.25;;;4.60;99.90;;;;;;5058639;28;20118;-82
2022/11/30 07:34:03;;;;;;;10.20;5.22;;;4.80;99.90;;;;;;5091364;28;20036;-82
2022/11/30 07:36:30;;;;;;;12.35;6.65;;;4.90;99.90;;;;;;5088131;28;20484;-82
2022/11/30 07:38:56;;;;;;;11.68;5.82;;;4.70;99.90;;;;;;5072092;28;20094;-82
2022/11/30 07:41:22;;;;;;;12.68;6.32;;;4.70;99.90;;;;;;5072293;28;20045;-82
2022/11/30 07:43:48;;;;;;;15.57;7.07;;;5.30;99.90;;;;;;5092161;28;20073;-84
2022/11/30 07:46:15;;;;;;;17.75;6.90;;;5.00;99.90;;;;;;5074673;28;20600;-84
2022/11/30 07:48:42;;;;;;;15.75;6.88;;;5.70;99.90;;;;;;5075330;28;20518;-84
2022/11/30 07:51:18;;;;;;;16.10;7.07;;;4.90;99.90;;;;;;5072704;28;20033;-84
2022/11/30 07:53:44;;;;;;;16.65;8.02;;;5.00;99.90;;;;;;5068358;28;20101;-84
2022/11/30 07:56:19;;;;;;;15.25;6.65;;;5.00;99.90;;;;;;5053737;28;20049;-84
2022/11/30 07:58:46;;;;;;;25.10;8.75;;;5.00;99.90;;;;;;5090180;28;20058;-84
2022/11/30 08:01:14;;;;;;;18.85;8.48;;;5.60;99.90;;;;;;5091357;28;20039;-83
2022/11/30 08:03:40;;;;;;;23.95;10.23;;;5.10;99.90;;;;;;5092049;28;20048;-82
2022/11/30 08:06:10;;;;;;;24.33;10.40;;;5.10;99.90;;;;;;5058308;28;20395;-82
2022/11/30 08:08:41;;;;;;;18.10;8.93;;;5.10;99.90;;;;;;5091555;28;20551;-82
2022/11/30 08:11:09;;;;;;;19.35;9.30;;;5.10;99.90;;;;;;5074967;28;20115;-82
2022/11/30 08:13:35;;;;;;;19.67;9.50;;;5.00;99.90;;;;;;5091769;28;20085;-83
2022/11/30 08:16:02;;;;;;;20.58;8.48;;;6.20;99.90;;;;;;5074718;28;20082;-82
2022/11/30 08:18:28;;;;;;;16.88;8.02;;;4.90;99.90;;;;;;5092064;28;20032;-83
2022/11/30 08:21:01;;;;;;;15.35;8.02;;;4.80;99.90;;;;;;5074906;28;20055;-83
2022/11/30 08:23:33;;;;;;;17.15;7.80;;;4.80;99.90;;;;;;5092037;28;20395;-83
2022/11/30 08:26:05;;;;;;;21.50;9.32;;;5.60;99.90;;;;;;5085137;28;20045;-84
2022/11/30 08:28:31;;;;;;;15.52;7.35;;;6.20;99.90;;;;;;5083436;28;20075;-84
2022/11/30 08:31:02;;;;;;;19.92;8.63;;;5.80;99.90;;;;;;5091478;28;20558;-84
2022/11/30 08:33:29;;;;;;;17.77;8.32;;;5.00;99.90;;;;;;5088312;28;20391;-82
2022/11/30 08:36:11;;;;;;;18.98;9.35;;;4.90;99.90;;;;;;5072227;28;20051;-82
2022/11/30 08:38:38;;;;;;;19.23;8.48;;;4.90;99.90;;;;;;5072264;28;20048;-81
2022/11/30 08:41:05;;;;;;;20.83;9.02;;;6.10;99.90;;;;;;5072529;28;20036;-82
2022/11/30 08:43:31;;;;;;;19.90;9.23;;;5.10;99.90;;;;;;5053054;28;20057;-82
2022/11/30 08:45:57;;;;;;;18.35;8.38;;;5.20;99.90;;;;;;5089064;28;20036;-82
2022/11/30 08:48:23;;;;;;;21.50;8.13;;;5.20;99.90;;;;;;5068540;28;20043;-82
2022/11/30 08:50:49;;;;;;;18.27;8.73;;;5.30;99.90;;;;;;5093230;28;20032;-80
2022/11/30 08:53:15;;;;;;;20.00;8.43;;;5.30;99.90;;;;;;5089709;28;20048;-80
2022/11/30 08:55:41;;;;;;;20.98;8.80;;;5.40;99.90;;;;;;5072683;28;20384;-80
2022/11/30 08:58:06;;;;;;;22.10;9.13;;;5.40;99.90;;;;;;5073756;28;20040;-84
2022/11/30 09:00:32;;;;;;;15.80;7.72;;;5.40;99.90;;;;;;5053466;28;20114;-84
2022/11/30 09:02:58;;;;;;;19.10;7.70;;;7.00;99.90;;;;;;5074234;28;20062;-84
2022/11/30 09:05:23;;;;;;;16.40;7.65;;;5.50;99.90;;;;;;5091249;28;20097;-84
2022/11/30 09:07:49;;;;;;;16.20;7.95;;;6.20;99.90;;;;;;5092791;28;20044;-82
2022/11/30 09:10:15;;;;;;;19.98;8.68;;;5.60;99.90;;;;;;5093268;28;20032;-80
2022/11/30 09:12:41;;;;;;;19.45;8.48;;;5.60;99.90;;;;;;5075992;28;20127;-80
2022/11/30 09:15:08;;;;;;;20.13;10.00;;;6.80;99.90;;;;;;5093515;28;20400;-80
2022/11/30 09:17:34;;;;;;;18.33;8.35;;;5.70;99.90;;;;;;5093220;28;20505;-80
2022/11/30 09:20:00;;;;;;;22.25;9.52;;;5.70;99.90;;;;;;5077110;28;20181;-80
2022/11/30 09:22:27;;;;;;;21.17;9.50;;;7.20;99.90;;;;;;5080190;28;20048;-80
2022/11/30 09:24:53;;;;;;;18.55;8.77;;;6.80;99.90;;;;;;5097639;28;20459;-84
2022/11/30 09:27:23;;;;;;;22.05;8.80;;;5.80;99.90;;;;;;5079208;28;20035;-84
2022/11/30 09:29:48;;;;;;;17.17;6.82;;;5.70;99.90;;;;;;5095610;28;20043;-84
2022/11/30 09:32:14;;;;;;;16.58;8.05;;;7.30;99.90;;;;;;5045671;28;20196;-84
2022/11/30 09:34:40;;;;;;;18.73;9.23;;;5.80;99.90;;;;;;5062451;28;20054;-84
2022/11/30 09:37:05;;;;;;;20.73;10.23;;;5.90;99.90;;;;;;5095342;28;20417;-84
2022/11/30 09:39:31;;;;;;;20.55;8.25;;;6.70;99.90;;;;;;5078605;28;20046;-80
2022/11/30 09:42:16;;;;;;;20.73;8.50;;;6.10;99.90;;;;;;5096126;28;20470;-80
2022/11/30 09:44:49;;;;;;;25.40;9.60;;;6.80;99.90;;;;;;5097228;28;20051;-80
2022/11/30 09:47:33;;;;;;;27.35;9.93;;;6.00;99.90;;;;;;5101063;28;20046;-80
2022/11/30 09:50:10;;;;;;;20.98;9.45;;;6.00;99.90;;;;;;5087020;28;20393;-80
2022/11/30 09:52:38;;;;;;;;;;;6.10;99.90;;;;;;5065550;28;20067;-80
2022/11/30 09:55:09;;;;;;;26.88;10.98;;;6.10;99.90;;;;;;5096277;28;19915;-80
2022/11/30 09:57:53;;;;;;;22.67;8.85;;;6.10;99.90;;;;;;5077872;28;20143;-81
2022/11/30 10:00:23;;;;;;;16.50;9.18;;;6.20;99.90;;;;;;5084940;28;20499;-85
2022/11/30 10:02:51;;;;;;;22.85;8.98;;;6.30;99.90;;;;;;5106780;28;20029;-82
2022/11/30 10:05:24;;;;;;;18.60;8.77;;;6.30;99.90;;;;;;5077676;28;20061;-82
2022/11/30 10:07:59;;;;;;;22.05;8.75;;;6.30;99.90;;;;;;5076085;28;20047;-82
2022/11/30 10:10:38;;;;;;;20.23;9.50;;;6.40;99.90;;;;;;5077273;28;20039;-82
2022/11/30 10:13:22;;;;;;;21.63;9.15;;;6.40;99.90;;;;;;5079711;28;20172;-82
2022/11/30 10:16:09;;;;;;;20.42;8.48;;;6.60;99.90;;;;;;5077242;28;20047;-82
2022/11/30 10:18:53;;;;;;;19.52;8.95;;;6.50;99.90;;;;;;5110263;27;20048;-82
2022/11/30 10:21:46;;;;;;;19.88;9.10;;;6.50;99.90;;;;;;5078577;28;20047;-82
2022/11/30 10:24:33;;;;;;;18.02;7.68;;;6.50;99.90;;;;;;5094641;28;20479;-82
2022/11/30 10:27:04;;;;;;;17.50;7.93;;;6.60;99.90;;;;;;5077674;28;20044;-82
2022/11/30 10:29:41;;;;;;;21.95;9.95;;;6.80;99.90;;;;;;5077399;28;20048;-82
2022/11/30 10:32:17;;;;;;;21.92;10.20;;;6.70;99.90;;;;;;5077603;28;20084;-82
2022/11/30 10:34:44;;;;;;;;;;;6.70;99.90;;;;;;5097745;22;20087;-82
2022/11/30 10:37:27;;;;;;;23.27;9.98;;;6.90;99.90;;;;;;5065513;28;19919;-82
2022/11/30 10:40:03;;;;;;;24.38;9.90;;;8.00;99.90;;;;;;5059446;28;20036;-82
2022/11/30 10:42:56;;;;;;;21.15;9.10;;;6.80;99.90;;;;;;5075650;28;20127;-82
2022/11/30 10:45:23;;;;;;;21.92;8.45;;;6.90;99.90;;;;;;5075613;28;20036;-82
2022/11/30 10:47:55;;;;;;;20.85;9.30;;;6.90;99.90;;;;;;5076045;28;20047;-81
2022/11/30 10:50:26;;;;;;;21.33;8.32;;;6.90;99.90;;;;;;5077829;28;20036;-81
2022/11/30 10:52:55;;;;;;;24.70;9.35;;;6.90;99.90;;;;;;5112719;28;20051;-81
2022/11/30 10:55:23;;;;;;;17.67;10.35;;;7.00;99.90;;;;;;5112741;28;20047;-81
2022/11/30 10:57:56;;;;;;;23.30;10.05;;;7.80;99.90;;;;;;5096256;28;20043;-81
2022/11/30 11:00:22;;;;;;;29.02;10.00;;;7.00;99.90;;;;;;5076537;28;20044;-81
2022/11/30 11:02:49;;;;;;;27.48;10.90;;;7.10;99.90;;;;;;5077113;28;20034;-82
2022/11/30 11:05:18;;;;;;;25.33;11.57;;;7.10;99.90;;;;;;5093556;28;20044;-82
2022/11/30 11:08:18;;;;;;;24.27;9.88;;;7.10;99.90;;;;;;5095345;28;20035;-82
2022/11/30 11:10:50;;;;;;;24.15;10.50;;;7.10;99.90;;;;;;5095591;28;20035;-83
2022/11/30 11:13:36;;;;;;;23.60;9.25;;;8.30;99.90;;;;;;5094919;28;20093;-83
2022/11/30 11:16:03;;;;;;;28.65;11.52;;;7.20;99.90;;;;;;5079703;28;20158;-83
2022/11/30 11:18:49;;;;;;;21.27;9.63;;;7.30;99.90;;;;;;5096914;28;20031;-83
2022/11/30 11:21:18;;;;;;;24.08;10.50;;;7.30;99.90;;;;;;5095929;28;20499;-83
2022/11/30 11:23:45;;;;;;;29.55;10.85;;;7.50;99.90;;;;;;5079187;28;20039;-85
2022/11/30 11:26:19;;;;;;;27.92;9.98;;;7.30;99.90;;;;;;5062661;28;20474;-84
2022/11/30 11:28:49;;;;;;;26.77;10.48;;;7.30;99.90;;;;;;5078614;28;20122;-84
2022/11/30 11:31:41;;;;;;;28.88;10.30;;;7.30;99.90;;;;;;5095851;28;20486;-83
2022/11/30 11:34:31;;;;;;;22.85;9.73;;;7.30;99.90;;;;;;5096181;28;20483;-82
2022/11/30 11:37:27;;;;;;;23.83;9.30;;;7.30;99.90;;;;;;5095969;28;20097;-84
2022/11/30 11:40:02;;;;;;;25.65;9.63;;;7.30;99.90;;;;;;5096253;28;20043;-85
2022/11/30 11:42:34;;;;;;;26.45;10.25;;;7.30;99.90;;;;;;5095717;28;20046;-85
2022/11/30 11:45:01;;;;;;;24.75;11.38;;;7.20;99.90;;;;;;5078857;28;20123;-85
2022/11/30 11:47:39;;;;;;;26.30;10.30;;;7.20;99.90;;;;;;5095791;28;20043;-85
2022/11/30 11:50:25;;;;;;;22.80;10.43;;;7.20;99.90;;;;;;5079107;28;20039;-83
2022/11/30 11:53:22;;;;;;;24.23;10.20;;;7.30;99.90;;;;;;5075583;28;20048;-82
2022/11/30 11:55:52;;;;;;;20.10;9.43;;;7.40;99.90;;;;;;5089500;28;20046;-82
2022/11/30 11:58:42;;;;;;;24.75;10.75;;;7.40;99.90;;;;;;5092960;28;20043;-81
2022/11/30 12:01:15;;;;;;;25.15;10.63;;;7.40;99.90;;;;;;5091735;28;20051;-81
2022/11/30 12:03:57;;;;;;;23.92;10.35;;;7.70;99.90;;;;;;5082093;28;20122;-81
2022/11/30 12:06:24;;;;;;;19.27;9.70;;;7.30;99.90;;;;;;5075270;28;20039;-80
2022/11/30 12:09:02;;;;;;;23.83;9.60;;;7.30;99.90;;;;;;5078011;28;20047;-81
2022/11/30 12:11:46;;;;;;;26.92;10.68;;;7.30;99.90;;;;;;5093978;28;20044;-82
2022/11/30 12:14:14;;;;;;;25.10;10.82;;;7.20;99.90;;;;;;5094103;28;20100;-81
2022/11/30 12:16:53;;;;;;;26.65;11.18;;;7.10;99.90;;;;;;5094559;28;20495;-82
2022/11/30 12:19:24;;;;;;;23.98;9.75;;;7.00;99.90;;;;;;5093973;28;20046;-82
2022/11/30 12:21:55;;;;;;;26.15;10.80;;;7.00;99.90;;;;;;5093613;28;20051;-81
2022/11/30 12:24:42;;;;;;;23.92;10.52;;;7.00;99.90;;;;;;5065657;28;20092;-81
2022/11/30 12:27:27;;;;;;;;;;;7.00;99.90;;;;;;5079891;28;20418;-85
2022/11/30 12:30:10;;;;;;;25.13;10.40;;;7.00;99.90;;;;;;5093838;28;19927;-84
2022/11/30 12:33:13;;;;;;;24.67;10.90;;;7.00;99.90;;;;;;5079444;28;20043;-84
2022/11/30 12:35:54;;;;;;;24.70;10.75;;;7.00;99.90;;;;;;5090529;28;20048;-81
2022/11/30 12:38:38;;;;;;;21.55;9.98;;;7.00;99.90;;;;;;5095164;28;20047;-81
2022/11/30 12:41:27;;;;;;;22.27;9.48;;;7.00;99.90;;;;;;5098391;28;20040;-81
2022/11/30 12:44:19;;;;;;;24.40;10.25;;;7.40;99.90;;;;;;5096734;28;20121;-84
2022/11/30 12:47:09;;;;;;;29.52;11.25;;;7.10;99.90;;;;;;5068820;28;20398;-85
2022/11/30 12:49:53;;;;;;;29.98;12.68;;;7.10;99.90;;;;;;5097618;28;20147;-83
2022/11/30 12:52:42;;;;;;;28.38;11.10;;;7.40;99.90;;;;;;5111824;28;20167;-83
2022/11/30 12:55:32;;;;;;;29.65;12.20;;;7.10;99.90;;;;;;5101380;28;20035;-83
2022/11/30 12:58:11;;;;;;;28.73;10.98;;;7.10;99.90;;;;;;5079864;28;20044;-83
2022/11/30 13:01:03;;;;;;;26.10;11.15;;;7.10;99.90;;;;;;5080993;28;20479;-85
2022/11/30 13:03:51;;;;;;;35.92;11.30;;;7.10;99.90;;;;;;5097448;28;20054;-85
2022/11/30 13:06:36;;;;;;;28.25;12.82;;;7.10;99.90;;;;;;5080320;28;20040;-85
2022/11/30 13:09:31;;;;;;;31.38;13.70;;;7.00;99.90;;;;;;5080318;28;20050;-85